createdAt,value
2019-03-25T00:01:11.134Z,3.33
2019-03-25T00:03:39.273Z,3.73
2019-03-25T00:06:08.138Z,3.00
2019-03-25T00:08:36.603Z,3.00
2019-03-25T00:11:04.854Z,3.60
2019-03-25T00:13:32.987Z,3.30
2019-03-25T00:16:01.101Z,3.07
2019-03-25T00:18:29.240Z,3.30
2019-03-25T00:20:57.347Z,2.70
2019-03-25T00:23:25.485Z,3.70
2019-03-25T00:25:53.601Z,3.27
2019-03-25T00:28:21.738Z,3.80
2019-03-25T00:30:49.913Z,2.80
2019-03-25T00:33:18.344Z,2.53
2019-03-25T00:35:46.456Z,2.87
2019-03-25T00:38:14.664Z,3.27
2019-03-25T00:40:42.778Z,2.60
2019-03-25T00:43:10.910Z,2.87
2019-03-25T00:45:39.021Z,2.70
2019-03-25T00:48:07.149Z,2.63
2019-03-25T00:50:35.257Z,2.60
2019-03-25T00:53:21.405Z,2.43
2019-03-25T00:55:49.580Z,2.50
2019-03-25T00:58:17.718Z,2.63
2019-03-25T01:00:45.825Z,2.20
2019-03-25T01:03:13.957Z,2.20
2019-03-25T01:05:42.136Z,2.93
2019-03-25T01:08:10.269Z,2.80
2019-03-25T01:10:38.381Z,2.77
2019-03-25T01:13:06.588Z,3.10
2019-03-25T01:15:34.694Z,2.77
2019-03-25T01:18:02.824Z,2.60
2019-03-25T01:20:30.991Z,2.57
2019-03-25T01:22:59.134Z,2.87
2019-03-25T01:25:27.443Z,2.60
2019-03-25T01:27:55.565Z,3.13
2019-03-25T01:30:23.699Z,3.20
2019-03-25T01:32:51.872Z,2.47
2019-03-25T01:35:20.008Z,3.40
2019-03-25T01:37:48.118Z,3.10
2019-03-25T01:40:16.330Z,3.40
2019-03-25T01:42:44.538Z,3.40
2019-03-25T01:45:13.225Z,2.43
2019-03-25T01:47:41.377Z,3.30
2019-03-25T01:50:09.595Z,3.23
2019-03-25T01:52:37.735Z,3.70
2019-03-25T01:55:13.360Z,2.93
2019-03-25T01:57:36.029Z,3.93
2019-03-25T02:00:05.831Z,3.80
2019-03-25T02:02:34.026Z,2.77
2019-03-25T02:05:02.200Z,3.63
2019-03-25T02:07:30.420Z,3.80
2019-03-25T02:09:58.561Z,3.43
2019-03-25T02:12:26.698Z,3.63
2019-03-25T02:14:54.870Z,3.77
2019-03-25T02:17:22.985Z,2.90
2019-03-25T02:19:51.127Z,3.73
2019-03-25T02:22:19.239Z,3.33
2019-03-25T02:24:47.443Z,3.70
2019-03-25T02:27:15.618Z,3.10
2019-03-25T02:29:43.752Z,4.00
2019-03-25T02:32:12.090Z,4.27
2019-03-25T02:34:40.275Z,3.73
2019-03-25T02:37:08.409Z,4.00
2019-03-25T02:39:36.609Z,3.10
2019-03-25T02:42:04.920Z,3.70
2019-03-25T02:44:35.911Z,4.70
2019-03-25T02:47:04.195Z,4.10
2019-03-25T02:49:32.362Z,3.73
2019-03-25T02:52:00.845Z,3.67
2019-03-25T02:54:29.038Z,3.40
2019-03-25T02:56:57.143Z,4.27
2019-03-25T02:59:27.953Z,3.93
2019-03-25T03:01:56.063Z,3.83
2019-03-25T03:04:24.273Z,4.10
2019-03-25T03:06:52.449Z,3.73
2019-03-25T03:09:20.637Z,3.80
2019-03-25T03:11:48.802Z,3.57
2019-03-25T03:14:16.928Z,4.47
2019-03-25T03:16:45.040Z,3.67
2019-03-25T03:19:13.947Z,3.93
2019-03-25T03:21:42.140Z,4.43
2019-03-25T03:24:10.264Z,3.63
2019-03-25T03:26:38.445Z,4.53
2019-03-25T03:29:06.553Z,3.83
2019-03-25T03:31:34.679Z,5.00
2019-03-25T03:34:02.873Z,4.00
2019-03-25T03:36:31.073Z,4.17
2019-03-25T03:39:00.713Z,3.93
2019-03-25T03:41:29.209Z,4.00
2019-03-25T03:44:00.438Z,5.07
2019-03-25T03:46:27.244Z,4.83
2019-03-25T03:48:55.421Z,3.90
2019-03-25T03:51:23.719Z,4.23
2019-03-25T03:53:51.832Z,5.07
2019-03-25T03:56:20.355Z,4.77
2019-03-25T03:58:48.700Z,4.33
2019-03-25T04:01:16.808Z,5.00
2019-03-25T04:03:44.932Z,3.83
2019-03-25T04:06:13.057Z,5.10
2019-03-25T04:08:41.178Z,4.23
2019-03-25T04:11:09.282Z,4.13
2019-03-25T04:13:37.416Z,4.50
2019-03-25T04:16:05.584Z,4.27
2019-03-25T04:18:33.714Z,5.10
2019-03-25T04:21:01.824Z,4.83
2019-03-25T04:23:30.202Z,4.23
2019-03-25T04:25:58.572Z,4.50
2019-03-25T04:28:26.705Z,5.13
2019-03-25T04:30:54.815Z,5.17
2019-03-25T04:33:22.950Z,5.13
2019-03-25T04:35:51.052Z,5.80
2019-03-25T04:38:19.539Z,5.50
2019-03-25T04:40:47.925Z,5.27
2019-03-25T04:43:16.100Z,5.53
2019-03-25T04:45:44.232Z,4.83
2019-03-25T04:48:12.385Z,4.50
2019-03-25T04:50:40.525Z,4.73
2019-03-25T04:53:08.639Z,5.03
2019-03-25T04:55:36.772Z,5.77
2019-03-25T04:58:04.890Z,5.20
2019-03-25T05:00:36.781Z,5.33
2019-03-25T05:03:04.962Z,5.50
2019-03-25T05:05:34.830Z,5.60
2019-03-25T05:08:03.055Z,5.17
2019-03-25T05:10:31.180Z,6.00
2019-03-25T05:12:59.287Z,5.03
2019-03-25T05:15:27.425Z,5.33
2019-03-25T05:17:55.536Z,5.90
2019-03-25T05:20:23.651Z,5.37
2019-03-25T05:22:51.776Z,5.40
2019-03-25T05:25:19.888Z,6.27
2019-03-25T05:27:48.007Z,6.53
2019-03-25T05:30:16.184Z,6.67
2019-03-25T05:32:44.308Z,7.00
2019-03-25T05:35:13.307Z,7.90
2019-03-25T05:37:41.435Z,7.93
2019-03-25T05:40:09.615Z,7.33
2019-03-25T05:42:37.741Z,7.17
2019-03-25T05:45:06.516Z,6.97
2019-03-25T05:47:34.639Z,6.47
2019-03-25T05:50:02.817Z,6.37
2019-03-25T05:52:31.519Z,6.53
2019-03-25T05:54:59.627Z,7.23
2019-03-25T05:57:27.735Z,7.90
2019-03-25T05:59:55.863Z,7.33
2019-03-25T06:02:23.968Z,7.00
2019-03-25T06:04:52.087Z,7.80
2019-03-25T06:07:20.200Z,7.70
2019-03-25T06:09:48.323Z,7.10
2019-03-25T06:12:16.495Z,6.93
2019-03-25T06:14:44.629Z,7.30
2019-03-25T06:17:12.744Z,7.47
2019-03-25T06:19:40.869Z,8.40
2019-03-25T06:22:09.048Z,8.90
2019-03-25T06:24:37.175Z,8.20
2019-03-25T06:27:13.579Z,7.73
2019-03-25T06:29:35.123Z,7.50
2019-03-25T06:32:03.236Z,8.13
2019-03-25T06:34:31.355Z,8.03
2019-03-25T06:37:02.243Z,7.27
2019-03-25T06:39:32.611Z,6.87
2019-03-25T06:42:00.732Z,7.87
2019-03-25T06:44:28.853Z,7.57
2019-03-25T06:46:56.975Z,7.23
2019-03-25T06:49:25.080Z,7.03
2019-03-25T06:51:53.199Z,6.07
2019-03-25T06:54:21.308Z,8.27
2019-03-25T06:56:49.431Z,6.90
2019-03-25T06:59:17.561Z,6.37
2019-03-25T07:01:45.802Z,5.17
2019-03-25T07:04:13.907Z,6.27
2019-03-25T07:06:42.031Z,5.77
2019-03-25T07:09:10.205Z,5.53
2019-03-25T07:11:38.816Z,6.07
2019-03-25T07:14:06.924Z,5.20
2019-03-25T07:16:35.139Z,4.80
2019-03-25T07:19:03.246Z,4.20
2019-03-25T07:21:31.347Z,4.23
2019-03-25T07:23:59.472Z,3.87
2019-03-25T07:26:27.591Z,4.30
2019-03-25T07:28:55.724Z,5.03
2019-03-25T07:31:23.833Z,3.90
2019-03-25T07:33:51.955Z,4.00
2019-03-25T07:36:20.059Z,3.60
2019-03-25T07:38:48.183Z,3.57
2019-03-25T07:41:17.197Z,3.37
2019-03-25T07:43:45.440Z,3.73
2019-03-25T07:46:13.582Z,3.27
2019-03-25T07:48:41.995Z,3.33
2019-03-25T07:51:10.109Z,3.70
2019-03-25T07:53:38.247Z,4.10
2019-03-25T07:56:06.361Z,3.27
2019-03-25T07:58:34.504Z,3.47
2019-03-25T08:01:02.647Z,3.40
2019-03-25T08:03:30.813Z,3.40
2019-03-25T08:05:58.945Z,2.80
2019-03-25T08:08:27.060Z,3.77
2019-03-25T08:10:55.318Z,3.70
2019-03-25T08:13:23.560Z,3.23
2019-03-25T08:15:52.248Z,3.23
2019-03-25T08:18:20.396Z,2.73
2019-03-25T08:20:48.524Z,2.80
2019-03-25T08:23:16.628Z,2.77
2019-03-25T08:25:44.752Z,2.80
2019-03-25T08:28:12.868Z,3.60
2019-03-25T08:30:40.992Z,3.33
2019-03-25T08:33:09.101Z,3.07
2019-03-25T08:35:37.296Z,3.53
2019-03-25T08:38:05.479Z,2.77
2019-03-25T08:40:33.651Z,3.10
2019-03-25T08:43:01.852Z,2.63
2019-03-25T08:45:30.033Z,3.90
2019-03-25T08:47:58.213Z,3.90
2019-03-25T08:50:26.312Z,3.50
2019-03-25T08:52:54.448Z,3.30
2019-03-25T08:55:22.543Z,3.10
2019-03-25T08:57:50.668Z,3.13
2019-03-25T09:00:18.921Z,2.87
2019-03-25T09:02:47.045Z,2.23
2019-03-25T09:05:15.155Z,2.23
2019-03-25T09:07:43.280Z,2.00
2019-03-25T09:10:11.624Z,2.60
2019-03-25T09:12:39.729Z,2.23
2019-03-25T09:15:09.464Z,2.60
2019-03-25T09:17:37.579Z,2.50
2019-03-25T09:20:09.303Z,2.20
2019-03-25T09:22:37.409Z,2.57
2019-03-25T09:25:10.738Z,2.30
2019-03-25T09:27:38.613Z,2.17
2019-03-25T09:30:07.680Z,2.43
2019-03-25T09:32:35.789Z,3.23
2019-03-25T09:35:05.708Z,2.37
2019-03-25T09:37:33.812Z,2.63
2019-03-25T09:40:01.932Z,2.10
2019-03-25T09:42:30.033Z,2.50
2019-03-25T09:44:58.608Z,2.30
2019-03-25T09:47:28.268Z,2.30
2019-03-25T09:49:56.443Z,2.23
2019-03-25T09:52:24.552Z,1.90
2019-03-25T09:54:52.651Z,2.87
2019-03-25T09:57:22.013Z,2.73
2019-03-25T09:59:50.170Z,4.37
2019-03-25T10:02:18.296Z,3.80
2019-03-25T10:04:46.402Z,2.40
2019-03-25T10:07:16.337Z,2.10
2019-03-25T10:09:44.438Z,1.80
2019-03-25T10:12:12.565Z,1.80
2019-03-25T10:14:40.668Z,1.90
2019-03-25T10:17:09.180Z,2.37
2019-03-25T10:19:37.636Z,2.13
2019-03-25T10:22:05.771Z,2.63
2019-03-25T10:24:33.889Z,2.93
2019-03-25T10:27:02.675Z,2.43
2019-03-25T10:29:30.788Z,1.83
2019-03-25T10:31:58.984Z,2.60
2019-03-25T10:34:27.143Z,2.20
2019-03-25T10:36:55.387Z,2.40
2019-03-25T10:39:23.497Z,2.07
2019-03-25T10:41:51.609Z,2.57
2019-03-25T10:44:19.747Z,2.70
2019-03-25T10:46:47.844Z,2.10
2019-03-25T10:49:16.370Z,1.80
2019-03-25T10:51:44.664Z,1.93
2019-03-25T10:54:12.797Z,1.63
2019-03-25T10:56:48.854Z,1.73
2019-03-25T10:59:10.760Z,2.77
2019-03-25T11:01:39.236Z,2.60
2019-03-25T11:04:07.717Z,2.03
2019-03-25T11:06:35.833Z,2.07
2019-03-25T11:09:05.491Z,1.60
2019-03-25T11:11:33.621Z,1.90
2019-03-25T11:14:01.825Z,2.20
2019-03-25T11:16:29.933Z,1.60
2019-03-25T11:19:00.794Z,2.10
2019-03-25T11:21:28.945Z,1.37
2019-03-25T11:23:57.150Z,1.80
2019-03-25T11:26:25.251Z,1.70
2019-03-25T11:28:53.357Z,1.97
2019-03-25T11:31:21.483Z,1.90
2019-03-25T11:33:49.593Z,1.90
2019-03-25T11:36:17.712Z,1.63
2019-03-25T11:38:45.821Z,2.10
2019-03-25T11:41:13.931Z,2.13
2019-03-25T11:43:42.040Z,1.90
2019-03-25T11:46:10.243Z,2.53
2019-03-25T11:48:38.356Z,2.00
2019-03-25T11:51:06.795Z,1.93
2019-03-25T11:53:34.975Z,2.10
2019-03-25T11:56:03.183Z,1.87
2019-03-25T11:58:31.629Z,1.83
2019-03-25T12:00:59.815Z,2.13
2019-03-25T12:03:27.920Z,1.87
2019-03-25T12:05:56.068Z,2.00
2019-03-25T12:08:24.167Z,2.27
2019-03-25T12:10:52.695Z,1.87
2019-03-25T12:13:20.902Z,2.17
2019-03-25T12:15:49.153Z,2.47
2019-03-25T12:18:17.281Z,2.40
2019-03-25T12:20:45.388Z,2.40
2019-03-25T12:23:13.523Z,2.00
2019-03-25T12:25:41.631Z,2.23
2019-03-25T12:28:09.760Z,2.40
2019-03-25T12:30:37.945Z,1.73
2019-03-25T12:33:06.073Z,2.23
2019-03-25T12:35:34.188Z,2.23
2019-03-25T12:38:02.388Z,2.47
2019-03-25T12:40:30.500Z,2.13
2019-03-25T12:42:58.952Z,2.10
2019-03-25T12:45:28.425Z,1.93
2019-03-25T12:47:56.768Z,2.17
2019-03-25T12:50:24.871Z,1.60
2019-03-25T12:52:52.985Z,1.37
2019-03-25T12:55:21.108Z,1.27
2019-03-25T12:57:49.223Z,1.30
2019-03-25T13:00:18.879Z,1.10
2019-03-25T13:02:46.983Z,1.10
2019-03-25T13:05:15.178Z,1.27
2019-03-25T13:07:43.286Z,1.50
2019-03-25T13:10:11.485Z,2.10
2019-03-25T13:12:39.590Z,1.83
2019-03-25T13:15:07.792Z,1.40
2019-03-25T13:17:35.901Z,1.50
2019-03-25T13:20:05.540Z,1.20
2019-03-25T13:22:33.712Z,1.63
2019-03-25T13:25:01.831Z,2.03
2019-03-25T13:27:29.951Z,1.73
2019-03-25T13:29:58.072Z,1.77
2019-03-25T13:32:26.207Z,1.83
2019-03-25T13:34:54.308Z,1.87
2019-03-25T13:37:22.482Z,1.90
2019-03-25T13:39:50.650Z,2.00
2019-03-25T13:42:18.791Z,1.77
2019-03-25T13:44:47.273Z,2.43
2019-03-25T13:47:15.408Z,2.17
2019-03-25T13:49:43.923Z,2.13
2019-03-25T13:52:12.051Z,2.43
2019-03-25T13:54:40.159Z,1.77
2019-03-25T13:57:08.654Z,1.53
2019-03-25T13:59:36.781Z,1.40
2019-03-25T14:02:04.974Z,1.43
2019-03-25T14:04:33.071Z,0.80
2019-03-25T14:07:01.198Z,0.90
2019-03-25T14:09:29.304Z,1.37
2019-03-25T14:11:57.428Z,1.20
2019-03-25T14:14:25.540Z,1.63
2019-03-25T14:16:53.772Z,1.80
2019-03-25T14:19:21.954Z,1.77
2019-03-25T14:21:50.073Z,2.37
2019-03-25T14:24:18.201Z,2.17
2019-03-25T14:26:46.478Z,2.27
2019-03-25T14:29:14.729Z,1.70
2019-03-25T14:31:42.911Z,2.37
2019-03-25T14:34:11.135Z,1.80
2019-03-25T14:36:39.315Z,2.07
2019-03-25T14:39:07.540Z,1.90
2019-03-25T14:41:35.739Z,2.37
2019-03-25T14:44:03.946Z,2.00
2019-03-25T14:46:32.049Z,2.20
2019-03-25T14:49:00.181Z,2.00
2019-03-25T14:51:28.360Z,2.27
2019-03-25T14:53:56.489Z,1.73
2019-03-25T14:56:26.596Z,2.47
2019-03-25T14:58:54.452Z,2.10
2019-03-25T15:01:22.645Z,2.10
2019-03-25T15:03:50.771Z,1.83
2019-03-25T15:06:19.303Z,2.20
2019-03-25T15:08:47.767Z,2.00
2019-03-25T15:11:16.161Z,2.40
2019-03-25T15:13:44.267Z,2.37
2019-03-25T15:16:12.698Z,1.87
2019-03-25T15:18:41.256Z,2.13
2019-03-25T15:21:09.508Z,2.40
2019-03-25T15:23:37.640Z,2.23
2019-03-25T15:26:07.937Z,2.07
2019-03-25T15:28:35.863Z,2.03
2019-03-25T15:31:05.364Z,1.80
2019-03-25T15:33:33.492Z,2.50
2019-03-25T15:36:01.612Z,2.40
2019-03-25T15:38:29.725Z,1.83
2019-03-25T15:40:57.892Z,1.60
2019-03-25T15:43:26.073Z,1.80
2019-03-25T15:45:54.189Z,1.60
2019-03-25T15:48:22.448Z,2.10
2019-03-25T15:50:50.553Z,2.10
2019-03-25T15:53:18.708Z,3.10
2019-03-25T15:55:46.897Z,2.17
2019-03-25T15:58:21.705Z,2.73
2019-03-25T16:00:48.038Z,2.07
2019-03-25T16:03:15.104Z,2.40
2019-03-25T16:05:43.288Z,2.47
2019-03-25T16:08:11.412Z,2.13
2019-03-25T16:10:40.137Z,2.07
2019-03-25T16:13:08.429Z,1.87
2019-03-25T16:15:40.613Z,2.40
2019-03-25T16:18:10.891Z,1.97
2019-03-25T16:20:39.022Z,2.33
2019-03-25T16:23:07.236Z,2.00
2019-03-25T16:25:35.359Z,1.97
2019-03-25T16:28:03.639Z,2.10
2019-03-25T16:30:31.918Z,1.80
2019-03-25T16:33:00.057Z,1.93
2019-03-25T16:35:28.181Z,1.60
2019-03-25T16:37:56.295Z,1.80
2019-03-25T16:40:24.415Z,2.00
2019-03-25T16:42:52.850Z,2.70
2019-03-25T16:45:21.049Z,2.23
2019-03-25T16:47:49.152Z,2.53
2019-03-25T16:50:17.302Z,2.50
2019-03-25T16:52:45.879Z,2.40
2019-03-25T16:55:14.019Z,2.50
2019-03-25T16:57:42.133Z,2.43
2019-03-25T17:00:10.860Z,2.33
2019-03-25T17:02:39.154Z,2.37
2019-03-25T17:05:07.404Z,3.03
2019-03-25T17:07:35.669Z,2.57
2019-03-25T17:10:04.915Z,2.80
2019-03-25T17:12:33.054Z,3.03
2019-03-25T17:17:35.131Z,2.57
2019-03-25T17:20:03.633Z,2.70
2019-03-25T17:22:31.841Z,2.40
2019-03-25T17:25:00.054Z,2.30
2019-03-25T17:27:28.282Z,2.83
2019-03-25T17:29:56.494Z,2.93
2019-03-25T17:32:24.709Z,2.93
2019-03-25T17:34:52.921Z,2.30
2019-03-25T17:37:21.067Z,2.50
2019-03-25T17:39:49.187Z,2.20
2019-03-25T17:42:17.323Z,3.80
2019-03-25T17:44:45.428Z,3.37
2019-03-25T17:47:13.721Z,2.83
2019-03-25T17:49:41.948Z,3.20
2019-03-25T17:52:10.301Z,3.90
2019-03-25T17:54:38.533Z,3.10
2019-03-25T17:57:06.797Z,4.53
2019-03-25T17:59:35.097Z,2.93
2019-03-25T18:02:03.210Z,2.53
2019-03-25T18:04:31.373Z,2.57
2019-03-25T18:06:59.484Z,2.90
2019-03-25T18:09:27.630Z,3.10
2019-03-25T18:11:56.823Z,2.93
2019-03-25T18:14:24.953Z,3.27
2019-03-25T18:16:53.091Z,3.17
2019-03-25T18:19:21.226Z,3.33
2019-03-25T18:21:49.374Z,4.60
2019-03-25T18:24:17.561Z,4.00
2019-03-25T18:26:45.702Z,2.80
2019-03-25T18:29:13.900Z,3.20
2019-03-25T18:31:43.809Z,2.93
2019-03-25T18:34:11.904Z,2.83
2019-03-25T18:36:40.155Z,3.27
2019-03-25T18:39:08.335Z,3.53
2019-03-25T18:41:36.461Z,3.47
2019-03-25T18:44:04.653Z,3.17
2019-03-25T18:46:33.490Z,3.53
2019-03-25T18:49:01.830Z,3.70
2019-03-25T18:51:29.978Z,3.87
2019-03-25T18:53:58.171Z,3.70
2019-03-25T18:56:26.375Z,3.60
2019-03-25T18:58:54.635Z,3.40
2019-03-25T19:01:23.114Z,2.57
2019-03-25T19:03:51.247Z,4.67
2019-03-25T19:06:19.529Z,3.07
2019-03-25T19:08:47.773Z,2.77
2019-03-25T19:11:16.067Z,2.93
2019-03-25T19:13:44.192Z,2.37
2019-03-25T19:16:12.404Z,3.30
2019-03-25T19:18:40.577Z,3.30
2019-03-25T19:21:09.282Z,2.87
2019-03-25T19:23:41.569Z,3.10
2019-03-25T19:26:09.805Z,2.97
2019-03-25T19:28:38.065Z,2.80
2019-03-25T19:31:06.541Z,2.67
2019-03-25T19:33:37.365Z,2.43
2019-03-25T19:36:05.643Z,3.57
2019-03-25T19:38:33.951Z,2.27
2019-03-25T19:41:02.330Z,2.77
2019-03-25T19:43:30.536Z,2.40
2019-03-25T19:45:59.231Z,2.73
2019-03-25T19:48:27.452Z,3.13
2019-03-25T19:50:56.373Z,3.77
2019-03-25T19:53:24.754Z,3.90
2019-03-25T19:55:52.923Z,3.00
2019-03-25T19:58:21.190Z,2.30
2019-03-25T20:00:49.419Z,2.70
2019-03-25T20:03:17.580Z,2.33
2019-03-25T20:05:45.742Z,2.43
2019-03-25T20:08:13.943Z,2.30
2019-03-25T20:10:42.155Z,2.23
2019-03-25T20:13:10.357Z,3.17
2019-03-25T20:15:46.044Z,2.40
2019-03-25T20:18:08.437Z,2.07
2019-03-25T20:20:36.689Z,2.20
2019-03-25T20:23:04.952Z,2.40
2019-03-25T20:25:33.089Z,2.17
2019-03-25T20:28:01.288Z,2.07
2019-03-25T20:30:29.453Z,2.30
2019-03-25T20:32:57.585Z,2.50
2019-03-25T20:35:25.923Z,2.73
2019-03-25T20:37:54.131Z,2.63
2019-03-25T20:40:22.365Z,2.70
2019-03-25T20:42:50.629Z,2.73
2019-03-25T20:45:18.842Z,3.00
2019-03-25T20:47:46.988Z,2.63
2019-03-25T20:50:15.911Z,1.90
2019-03-25T20:52:44.088Z,2.43
2019-03-25T20:55:12.300Z,2.97
2019-03-25T20:57:40.755Z,3.13
2019-03-25T21:00:10.698Z,2.97
2019-03-25T21:02:44.917Z,3.30
2019-03-25T21:05:08.894Z,3.93
2019-03-25T21:07:37.105Z,2.47
2019-03-25T21:10:06.203Z,2.53
2019-03-25T21:12:34.510Z,2.70
2019-03-25T21:15:03.019Z,2.30
2019-03-25T21:17:31.496Z,3.10
2019-03-25T21:20:00.006Z,2.70
2019-03-25T21:22:28.247Z,3.07
2019-03-25T21:24:56.448Z,2.87
2019-03-25T21:27:24.603Z,2.90
2019-03-25T21:29:52.769Z,3.03
2019-03-25T21:32:20.941Z,2.53
2019-03-25T21:34:49.148Z,2.60
2019-03-25T21:37:17.377Z,3.17
2019-03-25T21:39:45.921Z,2.70
2019-03-25T21:42:14.123Z,2.40
2019-03-25T21:44:42.261Z,2.60
2019-03-25T21:47:10.442Z,2.77
2019-03-25T21:49:38.603Z,2.60
2019-03-25T21:52:06.744Z,2.47
2019-03-25T21:54:34.871Z,2.40
2019-03-25T21:57:03.016Z,2.90
2019-03-25T21:59:31.165Z,2.17
2019-03-25T22:01:59.391Z,2.33
2019-03-25T22:04:27.615Z,2.40
2019-03-25T22:06:55.792Z,2.17
2019-03-25T22:09:23.901Z,2.10
2019-03-25T22:11:52.142Z,2.27
2019-03-25T22:14:20.240Z,2.40
2019-03-25T22:16:48.487Z,2.40
2019-03-25T22:19:16.744Z,2.20
2019-03-25T22:21:44.875Z,2.47
2019-03-25T22:24:13.254Z,2.80
2019-03-25T22:26:41.380Z,2.33
2019-03-25T22:29:09.521Z,2.67
2019-03-25T22:31:37.670Z,2.47
2019-03-25T22:34:05.834Z,2.50
2019-03-25T22:36:34.174Z,3.00
2019-03-25T22:39:02.284Z,2.57
2019-03-25T22:41:30.427Z,1.80
2019-03-25T22:43:58.535Z,2.43
2019-03-25T22:46:26.649Z,2.73
2019-03-25T22:48:55.089Z,3.23
2019-03-25T22:51:23.192Z,2.40
2019-03-25T22:53:51.317Z,2.73
2019-03-25T22:56:19.428Z,2.80
2019-03-25T22:58:47.868Z,2.47
2019-03-25T23:01:16.456Z,2.53
2019-03-25T23:03:44.588Z,2.63
2019-03-25T23:06:12.708Z,2.83
2019-03-25T23:08:40.901Z,2.37
2019-03-25T23:11:09.007Z,2.60
2019-03-25T23:13:37.135Z,2.70
2019-03-25T23:16:05.304Z,2.43
2019-03-25T23:18:33.432Z,2.60
2019-03-25T23:21:01.556Z,2.57
2019-03-25T23:23:29.987Z,2.10
2019-03-25T23:25:58.617Z,2.50
2019-03-25T23:28:26.719Z,2.27
2019-03-25T23:30:54.911Z,2.30
2019-03-25T23:33:23.024Z,2.97
2019-03-25T23:35:51.424Z,2.90
2019-03-25T23:38:19.536Z,2.57
2019-03-25T23:40:47.930Z,2.17
2019-03-25T23:43:16.511Z,3.03
2019-03-25T23:45:44.648Z,2.73
2019-03-25T23:48:12.744Z,2.50
2019-03-25T23:50:40.872Z,3.03
2019-03-25T23:53:08.984Z,2.93
2019-03-25T23:55:37.115Z,2.40
2019-03-25T23:58:05.225Z,2.10
